Time;durP1;ratioP1;P1;durP2;ratioP2;P2;SDS_P1;SDS_P2;PMS_P1;PMS_P2;Temp;Humidity;BMP_temperature;BMP_pressure;BME280_temperature;BME280_humidity;BME280_pressure;Samples;Min_cycle;Max_cycle;Signal;HPM_P1;HPM_P2
2023/03/16 00:02:16;;;;;;;13.83;12.80;;;4.60;99.90;;;;;;10505697;28;20580;-81
2023/03/16 00:07:20;;;;;;;12.67;11.60;;;4.60;99.90;;;;;;10505023;28;20307;-82
2023/03/16 00:12:25;;;;;;;13.60;12.50;;;4.60;99.90;;;;;;10489728;28;20314;-82
2023/03/16 00:17:27;;;;;;;11.87;10.97;;;4.50;99.90;;;;;;10508519;28;20223;-81
2023/03/16 00:22:30;;;;;;;13.60;12.40;;;4.50;99.90;;;;;;10519827;28;20218;-81
2023/03/16 00:27:33;;;;;;;13.30;12.17;;;4.40;99.90;;;;;;10484016;28;20338;-79
2023/03/16 00:32:37;;;;;;;12.37;11.37;;;4.40;99.90;;;;;;10499686;28;20603;-80
2023/03/16 00:37:41;;;;;;;14.87;13.57;;;4.50;99.90;;;;;;10483957;28;20222;-79
2023/03/16 00:42:45;;;;;;;15.17;13.73;;;4.40;99.90;;;;;;10498549;28;20224;-80
2023/03/16 00:47:47;;;;;;;14.40;13.20;;;4.40;99.90;;;;;;10499451;28;20258;-82
2023/03/16 00:52:52;;;;;;;15.63;14.33;;;4.40;99.90;;;;;;10483558;28;20196;-79
2023/03/16 00:57:56;;;;;;;15.90;14.30;;;4.40;99.90;;;;;;10501551;28;20238;-80
2023/03/16 01:02:58;;;;;;;14.10;13.00;;;4.40;99.90;;;;;;10500156;28;20665;-82
2023/03/16 01:08:01;;;;;;;14.23;13.00;;;4.30;99.90;;;;;;10501017;28;20312;-83
2023/03/16 01:13:06;;;;;;;13.97;12.87;;;4.30;99.90;;;;;;10507312;28;20218;-80
2023/03/16 01:18:08;;;;;;;12.90;11.80;;;4.30;99.90;;;;;;10495304;28;20225;-80
2023/03/16 01:23:10;;;;;;;13.87;12.77;;;4.30;99.90;;;;;;10517151;28;20220;-80
2023/03/16 01:28:13;;;;;;;13.90;12.60;;;4.30;99.90;;;;;;10515695;28;20232;-82
2023/03/16 01:33:16;;;;;;;13.73;12.63;;;4.30;99.90;;;;;;10543129;28;20634;-79
2023/03/16 01:38:18;;;;;;;13.07;11.87;;;4.30;99.90;;;;;;10491632;28;20285;-82
2023/03/16 01:43:24;;;;;;;13.07;11.93;;;4.20;99.90;;;;;;10508075;28;20281;-82
2023/03/16 01:48:27;;;;;;;13.60;12.47;;;4.20;99.90;;;;;;10493168;28;20316;-82
2023/03/16 01:53:32;;;;;;;12.30;11.20;;;4.20;99.90;;;;;;10521349;28;20295;-80
2023/03/16 01:58:37;;;;;;;11.60;10.50;;;4.20;99.90;;;;;;10487829;28;20235;-79
2023/03/16 02:03:40;;;;;;;12.77;11.67;;;4.30;99.90;;;;;;10483216;28;20555;-81
2023/03/16 02:08:54;;;;;;;15.13;13.90;;;4.30;99.90;;;;;;10485105;28;20219;-81
2023/03/16 02:14:03;;;;;;;17.00;15.40;;;4.30;99.90;;;;;;10506241;28;20196;-81
2023/03/16 02:19:11;;;;;;;16.93;15.50;;;4.40;99.90;;;;;;10506130;28;20223;-81
2023/03/16 02:24:13;;;;;;;17.97;16.33;;;4.40;99.90;;;;;;10507033;28;20253;-81
2023/03/16 02:29:28;;;;;;;16.73;15.33;;;4.50;99.90;;;;;;10502764;28;20287;-81
2023/03/16 02:34:32;;;;;;;18.97;17.27;;;4.50;99.90;;;;;;10503151;28;20215;-81
2023/03/16 02:39:34;;;;;;;18.27;16.63;;;4.50;99.90;;;;;;10504807;28;20662;-81
2023/03/16 02:44:39;;;;;;;19.40;17.70;;;4.50;99.90;;;;;;10486922;28;20238;-80
2023/03/16 02:49:45;;;;;;;22.20;20.10;;;4.50;99.90;;;;;;10504631;28;20217;-81
2023/03/16 02:54:47;;;;;;;18.00;16.20;;;4.60;99.90;;;;;;10487642;28;20184;-81
2023/03/16 02:59:50;;;;;;;18.00;16.20;;;4.50;99.90;;;;;;10487463;28;20218;-81
2023/03/16 03:04:54;;;;;;;18.27;16.57;;;4.50;99.90;;;;;;10507586;28;20196;-81
2023/03/16 03:09:58;;;;;;;17.60;16.10;;;4.40;99.90;;;;;;10504613;28;20213;-80
2023/03/16 03:15:01;;;;;;;17.27;15.73;;;4.30;99.90;;;;;;10482493;28;20697;-81
2023/03/16 03:20:15;;;;;;;20.83;18.83;;;4.20;99.90;;;;;;10482896;28;20293;-81
2023/03/16 03:25:18;;;;;;;23.07;20.53;;;4.20;99.90;;;;;;10484957;28;20196;-80
2023/03/16 03:30:24;;;;;;;21.30;19.40;;;4.20;99.90;;;;;;10501386;28;20238;-79
2023/03/16 03:35:28;;;;;;;18.70;16.93;;;4.20;99.90;;;;;;10482046;28;20194;-78
2023/03/16 03:40:30;;;;;;;17.90;16.30;;;4.20;99.90;;;;;;10482539;28;20219;-78
2023/03/16 03:45:36;;;;;;;17.83;16.30;;;4.10;99.90;;;;;;10497067;28;20210;-78
2023/03/16 03:50:40;;;;;;;18.33;16.63;;;4.10;99.90;;;;;;10480336;28;20228;-78
2023/03/16 03:56:03;;;;;;;19.83;18.13;;;4.10;99.90;;;;;;10497152;28;20200;-80
2023/03/16 04:01:06;;;;;;;19.77;17.97;;;4.10;99.90;;;;;;10486511;28;20338;-78
2023/03/16 04:06:10;;;;;;;19.97;18.17;;;4.10;99.90;;;;;;10479993;28;20200;-78
2023/03/16 04:11:12;;;;;;;19.07;17.43;;;4.20;99.90;;;;;;10497521;28;20192;-79
2023/03/16 04:16:16;;;;;;;20.73;18.83;;;4.20;99.90;;;;;;10495808;28;20204;-81
2023/03/16 04:21:21;;;;;;;19.60;17.80;;;4.30;99.90;;;;;;10479794;28;20222;-83
2023/03/16 04:26:24;;;;;;;20.30;18.60;;;4.30;99.90;;;;;;10479799;28;20245;-81
2023/03/16 04:31:27;;;;;;;18.37;16.77;;;4.30;99.90;;;;;;10495997;28;20234;-80
2023/03/16 04:36:32;;;;;;;18.80;17.10;;;4.30;99.90;;;;;;10479053;28;20247;-79
2023/03/16 04:41:34;;;;;;;18.53;16.93;;;4.30;99.90;;;;;;10495151;28;20693;-78
2023/03/16 04:46:48;;;;;;;17.67;16.23;;;4.20;99.90;;;;;;10496170;28;20768;-80
2023/03/16 04:51:51;;;;;;;18.50;16.90;;;4.00;99.90;;;;;;10496340;28;20220;-79
2023/03/16 04:56:55;;;;;;;19.47;17.77;;;4.00;99.90;;;;;;10495765;28;20303;-79
2023/03/16 05:02:13;;;;;;;19.80;17.83;;;4.00;99.90;;;;;;10496430;28;20210;-79
2023/03/16 05:07:17;;;;;;;16.80;15.40;;;4.00;99.90;;;;;;10521976;28;20241;-79
2023/03/16 05:12:24;;;;;;;17.70;16.10;;;4.00;99.90;;;;;;10474346;28;20199;-80
2023/03/16 05:17:31;;;;;;;17.57;15.97;;;3.90;99.90;;;;;;10476978;28;20225;-78
2023/03/16 05:22:35;;;;;;;43.63;32.83;;;3.90;99.90;;;;;;10496061;28;20223;-79
2023/03/16 05:27:57;;;;;;;24.50;21.93;;;3.80;99.90;;;;;;10452381;28;20256;-80
2023/03/16 05:33:09;;;;;;;19.60;17.10;;;3.80;99.90;;;;;;10495590;28;20194;-78
2023/03/16 05:38:14;;;;;;;19.03;17.40;;;3.80;99.90;;;;;;10478216;28;20225;-80
2023/03/16 05:43:19;;;;;;;19.13;17.33;;;3.80;99.90;;;;;;10522444;28;20218;-78
2023/03/16 05:48:28;;;;;;;20.20;18.30;;;3.80;99.90;;;;;;10533630;28;20275;-80
2023/03/16 05:53:37;;;;;;;19.10;17.40;;;3.70;99.90;;;;;;10476043;28;20195;-80
2023/03/16 05:58:47;;;;;;;17.67;16.07;;;3.80;99.90;;;;;;10483239;28;20225;-79
2023/03/16 06:03:51;;;;;;;21.23;19.23;;;3.70;99.90;;;;;;10503396;28;20223;-81
2023/03/16 06:08:58;;;;;;;20.33;18.43;;;3.80;99.90;;;;;;10506589;28;20229;-80
2023/03/16 06:14:02;;;;;;;20.70;18.80;;;3.80;99.90;;;;;;10486926;28;20317;-81
2023/03/16 06:19:05;;;;;;;20.53;18.53;;;3.80;99.90;;;;;;10467183;28;20220;-81
2023/03/16 06:24:10;;;;;;;19.93;17.93;;;3.90;99.90;;;;;;10497291;28;20217;-81
2023/03/16 06:29:12;;;;;;;20.37;18.47;;;3.90;99.90;;;;;;10524852;28;20218;-79
2023/03/16 06:34:15;;;;;;;21.67;19.67;;;3.90;99.90;;;;;;10518166;28;20201;-78
2023/03/16 06:39:23;;;;;;;22.57;20.30;;;4.00;99.90;;;;;;10537275;28;20245;-78
2023/03/16 06:44:26;;;;;;;22.07;19.93;;;4.00;99.90;;;;;;10509723;28;20231;-78
2023/03/16 06:49:36;;;;;;;20.73;18.73;;;4.10;99.90;;;;;;10503268;28;20318;-78
2023/03/16 06:54:47;;;;;;;24.83;22.40;;;4.20;99.90;;;;;;10497997;28;20197;-78
2023/03/16 06:59:50;;;;;;;22.90;20.70;;;4.20;99.90;;;;;;10498534;28;20219;-78
2023/03/16 07:04:55;;;;;;;29.67;25.17;;;4.30;99.90;;;;;;10500024;28;20265;-78
2023/03/16 07:10:00;;;;;;;24.60;22.27;;;4.30;99.90;;;;;;10482598;28;20220;-78
2023/03/16 07:15:03;;;;;;;22.00;20.00;;;4.40;99.90;;;;;;10499571;28;20200;-78
2023/03/16 07:20:09;;;;;;;22.53;20.43;;;4.50;99.90;;;;;;10482572;28;20231;-78
2023/03/16 07:25:13;;;;;;;22.50;20.33;;;4.60;99.90;;;;;;10482581;28;20204;-79
2023/03/16 07:30:20;;;;;;;24.67;22.33;;;4.70;99.90;;;;;;10498750;28;20216;-78
2023/03/16 07:35:25;;;;;;;22.87;20.63;;;4.80;99.90;;;;;;10498401;28;20210;-78
2023/03/16 07:40:29;;;;;;;22.20;20.10;;;4.90;99.90;;;;;;10498602;28;20215;-77
2023/03/16 07:45:39;;;;;;;21.50;19.33;;;5.00;99.90;;;;;;10497709;28;20197;-79
2023/03/16 07:50:42;;;;;;;22.20;20.00;;;5.10;99.90;;;;;;10479453;28;20260;-77
2023/03/16 07:55:46;;;;;;;21.97;19.97;;;5.20;99.90;;;;;;10497342;28;20194;-77
2023/03/16 08:00:48;;;;;;;20.60;18.67;;;5.40;99.90;;;;;;10496817;28;20621;-78
2023/03/16 08:05:50;;;;;;;20.30;18.30;;;5.60;99.90;;;;;;10496451;28;20200;-78
2023/03/16 08:10:55;;;;;;;19.40;17.50;;;5.80;99.90;;;;;;10497205;28;20212;-78
2023/03/16 08:16:09;;;;;;;18.60;16.70;;;6.00;99.90;;;;;;10496092;28;20180;-78
2023/03/16 08:21:14;;;;;;;18.93;17.13;;;6.20;99.90;;;;;;10495784;28;20240;-78
2023/03/16 08:26:19;;;;;;;19.00;17.10;;;6.40;99.90;;;;;;10496333;28;20198;-78
2023/03/16 08:31:22;;;;;;;17.63;15.90;;;6.60;99.90;;;;;;10479348;28;20237;-80
2023/03/16 08:36:30;;;;;;;14.27;12.97;;;6.80;99.90;;;;;;10495902;28;20252;-81
2023/03/16 08:41:35;;;;;;;15.17;13.57;;;7.00;99.90;;;;;;10496784;28;20214;-79
2023/03/16 08:46:43;;;;;;;12.83;11.80;;;7.20;99.90;;;;;;10496331;28;20229;-81
2023/03/16 08:51:45;;;;;;;10.90;9.90;;;7.40;99.90;;;;;;10498051;28;20273;-81
2023/03/16 08:56:50;;;;;;;10.90;9.97;;;7.60;98.90;;;;;;10498042;28;20304;-81
2023/03/16 09:01:53;;;;;;;9.77;8.97;;;7.70;99.00;;;;;;10496573;28;20259;-81
2023/03/16 09:06:55;;;;;;;9.30;8.40;;;7.80;99.40;;;;;;10497116;28;20213;-81
2023/03/16 09:11:58;;;;;;;9.27;8.47;;;8.00;97.90;;;;;;10500595;28;20201;-81
2023/03/16 09:17:00;;;;;;;8.60;7.80;;;8.20;96.50;;;;;;10498504;28;20565;-82
2023/03/16 09:22:02;;;;;;;8.40;7.70;;;8.30;96.80;;;;;;10499216;28;20233;-81
2023/03/16 09:27:06;;;;;;;8.70;8.00;;;8.30;95.90;;;;;;10497432;28;20240;-81
2023/03/16 09:32:09;;;;;;;8.43;7.73;;;8.40;97.00;;;;;;10504872;28;20190;-81
2023/03/16 09:37:11;;;;;;;12.20;11.20;;;8.60;97.50;;;;;;10504671;28;20213;-82
2023/03/16 09:42:19;;;;;;;9.17;8.37;;;8.90;97.40;;;;;;10505963;28;20247;-81
2023/03/16 09:47:27;;;;;;;8.80;7.57;;;9.30;97.50;;;;;;10507727;28;20227;-82
2023/03/16 09:52:38;;;;;;;11.70;10.37;;;9.60;94.40;;;;;;10506073;28;20204;-81
2023/03/16 09:57:44;;;;;;;5.80;5.20;;;9.90;92.40;;;;;;10508189;28;20226;-81
2023/03/16 10:03:23;;;;;;;6.40;5.80;;;9.90;92.10;;;;;;10505463;28;20217;-82
2023/03/16 10:08:30;;;;;;;11.53;7.50;;;10.10;93.90;;;;;;10484546;28;20223;-82
2023/03/16 10:13:43;;;;;;;7.00;6.40;;;10.30;91.60;;;;;;10507669;28;20282;-82
2023/03/16 10:18:48;;;;;;;7.67;6.97;;;10.30;91.40;;;;;;10506173;28;20317;-81
2023/03/16 10:23:52;;;;;;;7.60;6.90;;;10.40;90.70;;;;;;10506904;28;20418;-81
2023/03/16 10:28:56;;;;;;;8.37;7.57;;;10.40;90.40;;;;;;10505199;28;20240;-81
2023/03/16 10:34:05;;;;;;;7.30;6.70;;;10.30;90.90;;;;;;10488926;28;20231;-82
2023/03/16 10:39:10;;;;;;;8.17;7.40;;;10.40;90.10;;;;;;10509941;28;20221;-82
2023/03/16 10:44:17;;;;;;;7.40;6.70;;;10.30;91.30;;;;;;10504201;28;20275;-81
2023/03/16 10:49:24;;;;;;;5.67;5.17;;;10.30;90.70;;;;;;10503710;28;20225;-82
2023/03/16 10:54:30;;;;;;;5.70;5.20;;;10.30;87.80;;;;;;10505978;28;20560;-82
2023/03/16 10:59:35;;;;;;;5.17;4.67;;;10.30;88.00;;;;;;10506471;28;20303;-82
2023/03/16 11:04:38;;;;;;;5.43;4.93;;;10.30;88.10;;;;;;10507612;28;20216;-82
2023/03/16 11:09:42;;;;;;;4.90;4.47;;;10.20;90.20;;;;;;10509344;28;20213;-82
2023/03/16 11:14:47;;;;;;;6.70;4.67;;;10.20;87.00;;;;;;10512421;28;20251;-82
2023/03/16 11:19:53;;;;;;;4.50;4.10;;;10.20;87.00;;;;;;10508434;28;20220;-81
2023/03/16 11:25:03;;;;;;;5.30;4.80;;;10.20;87.50;;;;;;10505348;28;20200;-82
2023/03/16 11:30:14;;;;;;;75.97;42.43;;;10.20;89.50;;;;;;10504310;28;20224;-81
2023/03/16 11:35:19;;;;;;;5.27;4.77;;;10.20;87.30;;;;;;10505292;28;20316;-81
2023/03/16 11:40:38;;;;;;;5.47;4.97;;;10.30;86.10;;;;;;10489556;28;20214;-81
2023/03/16 11:45:50;;;;;;;5.13;4.60;;;10.20;90.90;;;;;;10512540;28;20202;-81
2023/03/16 11:51:05;;;;;;;4.30;3.93;;;10.30;91.30;;;;;;10519252;28;20213;-80
2023/03/16 11:56:16;;;;;;;4.97;4.27;;;10.40;89.40;;;;;;10544578;28;20252;-80
2023/03/16 12:01:26;;;;;;;4.17;3.87;;;10.40;90.00;;;;;;10485565;28;20208;-81
2023/03/16 12:06:53;;;;;;;4.87;4.57;;;10.50;89.40;;;;;;10475561;28;20215;-81
2023/03/16 12:12:00;;;;;;;5.00;4.60;;;10.50;90.70;;;;;;10499292;28;20202;-81
2023/03/16 12:17:09;;;;;;;5.90;4.90;;;10.50;90.50;;;;;;10501711;28;20688;-81
2023/03/16 12:22:18;;;;;;;8.30;7.50;;;10.50;91.70;;;;;;10501393;28;21070;-81
2023/03/16 12:27:23;;;;;;;4.50;4.20;;;10.60;91.50;;;;;;10501654;28;20220;-81
2023/03/16 12:32:41;;;;;;;4.50;4.10;;;10.70;85.50;;;;;;10499739;28;20209;-81
2023/03/16 12:37:53;;;;;;;5.87;5.40;;;10.70;88.30;;;;;;10497847;28;20304;-81
2023/03/16 12:43:18;;;;;;;5.03;4.60;;;10.70;87.70;;;;;;10499466;28;20208;-81
2023/03/16 12:48:27;;;;;;;5.43;5.03;;;11.00;84.30;;;;;;10497914;28;20227;-81
2023/03/16 12:53:42;;;;;;;5.40;4.90;;;11.30;82.10;;;;;;10497008;28;20700;-81
2023/03/16 12:58:47;;;;;;;4.60;4.20;;;11.40;82.10;;;;;;10498671;28;20244;-81
2023/03/16 13:03:58;;;;;;;5.87;5.10;;;11.50;83.80;;;;;;10471260;28;20228;-81
2023/03/16 13:09:02;;;;;;;8.20;5.30;;;11.60;82.50;;;;;;10493619;28;20213;-81
2023/03/16 13:14:09;;;;;;;5.67;5.17;;;11.70;86.50;;;;;;10504100;28;20217;-81
2023/03/16 13:19:26;;;;;;;6.70;6.10;;;11.60;90.40;;;;;;10507529;28;20205;-81
2023/03/16 13:24:37;;;;;;;6.90;5.70;;;11.60;86.00;;;;;;10505740;28;20200;-81
2023/03/16 13:29:39;;;;;;;5.47;4.97;;;11.60;81.80;;;;;;10506512;28;20224;-81
2023/03/16 13:34:52;;;;;;;5.83;5.23;;;11.60;82.20;;;;;;10505423;28;20213;-81
2023/03/16 13:39:56;;;;;;;4.40;3.97;;;11.50;82.10;;;;;;10509239;28;20206;-81
2023/03/16 13:44:59;;;;;;;5.97;5.07;;;11.40;84.00;;;;;;10507722;28;20221;-81
2023/03/16 13:50:02;;;;;;;7.57;6.63;;;11.50;81.10;;;;;;10506146;28;20234;-81
2023/03/16 13:55:14;;;;;;;4.83;4.53;;;11.50;81.40;;;;;;10505788;28;20658;-81
2023/03/16 14:00:19;;;;;;;5.87;4.67;;;11.40;87.30;;;;;;10506752;28;20264;-81
2023/03/16 14:05:25;;;;;;;5.93;5.33;;;11.40;86.10;;;;;;10505868;28;20201;-81
2023/03/16 14:10:32;;;;;;;6.00;5.07;;;11.70;80.20;;;;;;10505878;28;20249;-81
2023/03/16 14:15:37;;;;;;;5.57;4.30;;;11.80;82.40;;;;;;10505177;28;20213;-82
2023/03/16 14:20:41;;;;;;;4.97;4.57;;;11.90;86.30;;;;;;10506123;28;20685;-81
2023/03/16 14:25:43;;;;;;;5.00;4.60;;;12.10;80.60;;;;;;10507264;28;20606;-81
2023/03/16 14:30:53;;;;;;;4.80;4.40;;;12.20;78.00;;;;;;10509252;28;20213;-81
2023/03/16 14:35:57;;;;;;;4.83;4.43;;;12.00;82.50;;;;;;10507605;28;20266;-81
2023/03/16 14:41:04;;;;;;;4.50;4.10;;;12.20;78.20;;;;;;10509186;28;20247;-81
2023/03/16 14:46:13;;;;;;;4.70;4.30;;;12.10;86.90;;;;;;10506793;28;20555;-81
2023/03/16 14:51:16;;;;;;;4.40;4.00;;;12.00;81.20;;;;;;10503993;28;20193;-82
2023/03/16 14:56:18;;;;;;;4.17;3.80;;;12.20;74.30;;;;;;10495091;28;20216;-79
2023/03/16 15:01:20;;;;;;;4.03;3.50;;;12.30;73.00;;;;;;10496594;28;20203;-80
2023/03/16 15:06:25;;;;;;;4.93;4.53;;;12.20;77.10;;;;;;10498364;28;20230;-80
2023/03/16 15:11:30;;;;;;;4.97;4.60;;;12.20;71.20;;;;;;10519820;28;20264;-80
2023/03/16 15:16:33;;;;;;;4.77;4.30;;;12.20;79.40;;;;;;10513866;28;20227;-81
2023/03/16 15:21:36;;;;;;;3.23;2.83;;;12.20;78.30;;;;;;10506601;28;20570;-80
2023/03/16 15:26:38;;;;;;;3.40;2.80;;;12.30;74.00;;;;;;10508566;28;20205;-81
2023/03/16 15:31:40;;;;;;;3.20;3.00;;;12.40;73.40;;;;;;10508404;28;20724;-81
2023/03/16 15:36:44;;;;;;;3.00;2.80;;;12.50;71.40;;;;;;10511622;28;20220;-81
2023/03/16 15:41:46;;;;;;;2.87;2.70;;;12.50;71.30;;;;;;10496521;28;20193;-81
2023/03/16 15:46:48;;;;;;;2.97;2.70;;;12.70;66.50;;;;;;10519961;28;20259;-81
2023/03/16 15:51:51;;;;;;;3.43;3.10;;;12.70;67.30;;;;;;10518053;28;20200;-80
2023/03/16 15:56:54;;;;;;;3.43;3.13;;;12.70;66.00;;;;;;10518323;28;20213;-80
2023/03/16 16:01:57;;;;;;;3.57;3.07;;;12.70;67.30;;;;;;10486953;28;20201;-80
2023/03/16 16:07:01;;;;;;;3.90;3.23;;;12.60;73.30;;;;;;10465621;28;20311;-80
2023/03/16 16:12:04;;;;;;;5.40;3.00;;;12.50;70.10;;;;;;10484687;28;20203;-81
2023/03/16 16:17:10;;;;;;;3.30;3.10;;;12.50;68.60;;;;;;10464410;28;20208;-81
2023/03/16 16:22:13;;;;;;;2.90;2.70;;;12.40;69.50;;;;;;10489460;28;20259;-79
2023/03/16 16:27:15;;;;;;;4.77;3.67;;;12.50;69.90;;;;;;10498342;28;20209;-80
2023/03/16 16:32:23;;;;;;;4.00;3.67;;;12.50;68.60;;;;;;10501518;28;20230;-81
2023/03/16 16:37:26;;;;;;;4.73;4.20;;;12.40;74.20;;;;;;10501935;28;20235;-80
2023/03/16 16:42:28;;;;;;;2.80;2.60;;;12.30;78.80;;;;;;10504621;28;20193;-81
2023/03/16 16:47:31;;;;;;;3.43;3.23;;;12.20;82.70;;;;;;10520812;28;20241;-80
2023/03/16 16:52:36;;;;;;;7.50;6.00;;;12.10;76.90;;;;;;10543767;28;20264;-80
2023/03/16 16:57:38;;;;;;;4.37;4.07;;;12.00;80.40;;;;;;10530425;28;20296;-81
2023/03/16 17:02:44;;;;;;;5.77;5.13;;;11.80;86.40;;;;;;10482527;28;20247;-81
2023/03/16 17:07:48;;;;;;;6.37;4.70;;;11.70;86.90;;;;;;10497891;28;20213;-82
2023/03/16 17:12:51;;;;;;;6.00;4.87;;;11.50;84.70;;;;;;10497564;28;20217;-82
2023/03/16 17:17:59;;;;;;;6.07;4.13;;;11.50;84.20;;;;;;10496603;28;20220;-81
2023/03/16 17:23:03;;;;;;;5.27;4.70;;;11.40;86.60;;;;;;10497139;28;20696;-81
2023/03/16 17:28:05;;;;;;;5.40;4.90;;;11.40;86.50;;;;;;10494662;28;20726;-81
2023/03/16 17:33:13;;;;;;;4.17;3.83;;;11.30;88.30;;;;;;10497701;28;20212;-80
2023/03/16 17:38:21;;;;;;;5.53;3.93;;;11.20;89.10;;;;;;10496011;28;20579;-81
2023/03/16 17:43:24;;;;;;;4.47;3.63;;;11.20;88.10;;;;;;10495822;28;20190;-81
2023/03/16 17:48:26;;;;;;;6.47;4.10;;;11.10;88.70;;;;;;10476637;28;20227;-81
2023/03/16 17:53:29;;;;;;;7.30;5.30;;;10.90;89.60;;;;;;10498433;28;20293;-81
2023/03/16 17:58:31;;;;;;;7.43;6.57;;;10.80;90.10;;;;;;10502480;28;20220;-81
2023/03/16 18:03:33;;;;;;;5.67;5.00;;;10.80;89.70;;;;;;10508036;28;20197;-82
2023/03/16 18:08:37;;;;;;;6.47;5.70;;;10.70;90.10;;;;;;10503610;28;20705;-80
2023/03/16 18:13:40;;;;;;;7.20;5.77;;;10.60;90.30;;;;;;10509567;28;20246;-81
2023/03/16 18:18:43;;;;;;;4.93;4.53;;;10.50;90.60;;;;;;10504926;28;20216;-82
2023/03/16 18:23:46;;;;;;;6.07;5.37;;;10.40;90.30;;;;;;10506787;28;20287;-81
2023/03/16 18:28:49;;;;;;;7.93;6.77;;;10.30;90.40;;;;;;10480058;28;20303;-81
2023/03/16 18:33:53;;;;;;;8.03;6.40;;;10.20;90.40;;;;;;10472296;28;20707;-81
2023/03/16 18:39:00;;;;;;;7.17;6.57;;;10.00;90.40;;;;;;10508530;28;20214;-81
2023/03/16 18:44:13;;;;;;;6.07;5.47;;;9.90;90.90;;;;;;10506340;28;20276;-82
2023/03/16 18:49:21;;;;;;;8.57;7.40;;;9.90;91.20;;;;;;10504996;28;20299;-81
2023/03/16 18:54:27;;;;;;;11.90;10.70;;;9.90;90.80;;;;;;10504826;28;20273;-81
2023/03/16 18:59:30;;;;;;;9.37;7.63;;;9.80;91.30;;;;;;10500213;28;20220;-81
2023/03/16 19:04:36;;;;;;;7.23;6.53;;;9.70;91.30;;;;;;10503550;28;20195;-79
2023/03/16 19:09:42;;;;;;;10.70;9.00;;;9.70;90.70;;;;;;10505538;28;20224;-83
2023/03/16 19:14:44;;;;;;;9.00;7.73;;;9.70;91.40;;;;;;10487750;28;20225;-82
2023/03/16 19:19:47;;;;;;;6.40;5.80;;;9.70;91.10;;;;;;10501782;28;20231;-82
2023/03/16 19:24:53;;;;;;;6.27;5.67;;;9.70;91.50;;;;;;10488062;28;20715;-80
2023/03/16 19:29:55;;;;;;;6.80;6.20;;;9.80;90.50;;;;;;10505812;28;20266;-82
2023/03/16 19:34:57;;;;;;;7.00;6.30;;;9.80;90.70;;;;;;10490299;28;20373;-82
2023/03/16 19:40:02;;;;;;;8.60;7.80;;;9.80;90.60;;;;;;10508099;28;20222;-81
2023/03/16 19:45:05;;;;;;;6.03;5.53;;;9.80;90.30;;;;;;10504963;28;20284;-81
2023/03/16 19:50:14;;;;;;;7.20;6.50;;;9.80;91.10;;;;;;10503609;28;20303;-80
2023/03/16 19:55:21;;;;;;;6.23;5.73;;;9.80;91.90;;;;;;10504497;28;20302;-80
2023/03/16 20:00:25;;;;;;;5.63;5.13;;;9.70;91.80;;;;;;10500709;28;20232;-82
2023/03/16 20:05:29;;;;;;;7.43;6.00;;;9.70;91.10;;;;;;10499463;28;20227;-80
2023/03/16 20:10:33;;;;;;;8.23;7.20;;;9.70;91.70;;;;;;10499528;28;20713;-81
2023/03/16 20:15:36;;;;;;;6.83;6.23;;;9.60;91.30;;;;;;10498064;28;20216;-79
2023/03/16 20:20:38;;;;;;;8.30;7.43;;;9.50;92.00;;;;;;10501176;28;20227;-80
2023/03/16 20:25:41;;;;;;;9.00;7.00;;;9.40;91.80;;;;;;10499092;28;20230;-81
2023/03/16 20:30:44;;;;;;;8.77;7.30;;;9.20;92.20;;;;;;10502691;28;20627;-78
2023/03/16 20:35:46;;;;;;;7.93;7.33;;;9.10;92.40;;;;;;10501584;28;20232;-81
2023/03/16 20:40:52;;;;;;;7.70;7.00;;;9.00;92.80;;;;;;10504560;28;20309;-83
2023/03/16 20:45:57;;;;;;;10.37;9.50;;;8.80;93.10;;;;;;10484343;28;20193;-81
2023/03/16 20:51:00;;;;;;;8.73;8.03;;;8.70;93.00;;;;;;10499785;28;20239;-82
2023/03/16 20:56:04;;;;;;;8.67;7.83;;;8.70;93.20;;;;;;10496687;28;20705;-79
2023/03/16 21:01:16;;;;;;;8.67;7.87;;;8.60;93.50;;;;;;10495985;28;20209;-79
2023/03/16 21:06:22;;;;;;;7.60;7.00;;;8.50;93.60;;;;;;10497972;28;20176;-79
2023/03/16 21:11:30;;;;;;;7.17;6.57;;;8.40;93.80;;;;;;10481118;28;20211;-81
2023/03/16 21:16:33;;;;;;;9.23;6.77;;;8.30;93.80;;;;;;10503021;28;20225;-79
2023/03/16 21:21:36;;;;;;;8.10;7.30;;;8.20;93.90;;;;;;10498685;28;20630;-80
2023/03/16 21:26:41;;;;;;;6.90;6.27;;;8.20;93.90;;;;;;10503403;28;20226;-81
2023/03/16 21:32:14;;;;;;;8.40;7.60;;;8.10;94.10;;;;;;10512234;28;20501;-83
2023/03/16 21:37:18;;;;;;;8.57;7.60;;;8.00;94.20;;;;;;10465665;28;20244;-80
2023/03/16 21:42:22;;;;;;;7.60;7.00;;;7.90;94.50;;;;;;10511779;28;20198;-81
2023/03/16 21:47:27;;;;;;;7.87;7.17;;;7.90;94.40;;;;;;10513944;28;20270;-80
2023/03/16 21:52:30;;;;;;;6.60;6.00;;;7.90;94.50;;;;;;10532693;28;20215;-79
2023/03/16 21:57:33;;;;;;;7.43;6.80;;;7.80;94.60;;;;;;10525041;28;20646;-80
2023/03/16 22:02:36;;;;;;;9.47;8.60;;;7.80;94.40;;;;;;10505742;28;20227;-80
2023/03/16 22:07:38;;;;;;;23.47;19.10;;;7.70;94.80;;;;;;10502397;28;20224;-80
2023/03/16 22:12:42;;;;;;;9.90;8.97;;;7.60;95.20;;;;;;10521420;28;20200;-80
2023/03/16 22:17:47;;;;;;;10.13;7.90;;;7.70;95.40;;;;;;10503361;28;20220;-80
2023/03/16 22:22:51;;;;;;;11.20;10.00;;;7.70;95.10;;;;;;10503952;28;20206;-80
2023/03/16 22:27:56;;;;;;;40.90;29.37;;;7.70;95.40;;;;;;10503126;28;20302;-81
2023/03/16 22:33:00;;;;;;;8.67;7.77;;;7.70;95.40;;;;;;10504443;28;20193;-80
2023/03/16 22:38:06;;;;;;;9.43;8.40;;;7.70;95.10;;;;;;10503143;28;20227;-81
2023/03/16 22:43:14;;;;;;;13.50;12.20;;;7.70;95.30;;;;;;10486183;28;20204;-80
2023/03/16 22:48:20;;;;;;;10.77;7.57;;;7.70;95.40;;;;;;10508506;28;20221;-81
2023/03/16 22:53:29;;;;;;;11.70;10.70;;;7.70;95.50;;;;;;10503176;28;20206;-80
2023/03/16 22:58:35;;;;;;;7.50;6.90;;;7.70;95.50;;;;;;10504710;28;20272;-81
2023/03/16 23:03:37;;;;;;;10.13;9.20;;;7.60;95.50;;;;;;10497357;28;20610;-79
2023/03/16 23:08:40;;;;;;;8.47;7.77;;;7.60;95.70;;;;;;10502028;28;20213;-80
2023/03/16 23:13:44;;;;;;;6.73;6.07;;;7.50;95.70;;;;;;10507631;28;20564;-82
2023/03/16 23:18:46;;;;;;;6.60;6.00;;;7.50;95.60;;;;;;10499193;28;20226;-81
2023/03/16 23:23:50;;;;;;;6.43;5.87;;;7.50;95.30;;;;;;10500298;28;20285;-82
2023/03/16 23:28:55;;;;;;;6.47;5.97;;;7.40;95.40;;;;;;10498972;28;20217;-79
2023/03/16 23:33:57;;;;;;;6.40;5.80;;;7.30;95.30;;;;;;10499977;28;20224;-80
2023/03/16 23:39:00;;;;;;;6.63;6.03;;;7.20;95.60;;;;;;10498179;28;20238;-80
2023/03/16 23:44:04;;;;;;;6.47;5.83;;;7.20;95.50;;;;;;10496542;28;20202;-81
2023/03/16 23:49:17;;;;;;;6.87;6.27;;;7.10;95.40;;;;;;10479537;28;20336;-80
2023/03/16 23:54:21;;;;;;;7.70;6.77;;;7.00;95.50;;;;;;10481899;28;20835;-80
2023/03/16 23:59:26;;;;;;;6.63;5.50;;;7.00;95.80;;;;;;10484238;28;20217;-81
